Time;durP1;ratioP1;P1;durP2;ratioP2;P2;SDS_P1;SDS_P2;PMS_P1;PMS_P2;Temp;Humidity;BMP_temperature;BMP_pressure;BME280_temperature;BME280_humidity;BME280_pressure;Samples;Min_cycle;Max_cycle;Signal;HPM_P1;HPM_P2
2023/05/29 00:01:08;;;;;;;11.07;3.67;;;13.60;93.70;;;;;;5082392;28;20024;-83
2023/05/29 00:03:35;;;;;;;13.93;4.30;;;13.60;93.70;;;;;;5082192;28;20352;-83
2023/05/29 00:06:05;;;;;;;10.63;3.78;;;13.60;93.70;;;;;;5099258;28;20052;-83
2023/05/29 00:08:31;;;;;;;13.93;4.45;;;13.60;93.70;;;;;;5082246;28;20445;-83
2023/05/29 00:10:58;;;;;;;15.18;4.10;;;13.60;93.70;;;;;;5098667;28;20059;-83
2023/05/29 00:13:23;;;;;;;15.00;3.90;;;13.60;93.60;;;;;;5098864;28;20027;-83
2023/05/29 00:15:49;;;;;;;12.63;3.83;;;13.50;93.60;;;;;;5098365;28;20031;-84
2023/05/29 00:18:15;;;;;;;15.43;4.13;;;13.50;93.70;;;;;;5081518;28;20032;-83
2023/05/29 00:20:40;;;;;;;15.10;3.75;;;13.40;93.90;;;;;;5098327;28;20038;-83
2023/05/29 00:23:07;;;;;;;13.88;3.78;;;13.30;93.90;;;;;;5098641;28;20034;-83
2023/05/29 00:25:33;;;;;;;10.18;3.83;;;13.30;94.00;;;;;;5081519;28;20124;-83
2023/05/29 00:27:59;;;;;;;12.23;3.75;;;13.30;94.00;;;;;;5098010;28;20262;-83
2023/05/29 00:30:24;;;;;;;17.90;3.85;;;13.20;94.00;;;;;;5081747;28;20027;-83
2023/05/29 00:32:51;;;;;;;9.80;3.30;;;13.20;94.00;;;;;;5081322;28;20031;-83
2023/05/29 00:35:18;;;;;;;12.60;3.92;;;13.20;94.10;;;;;;5098567;28;20042;-83
2023/05/29 00:37:43;;;;;;;13.60;3.75;;;13.20;94.00;;;;;;5097975;28;20085;-83
2023/05/29 00:40:11;;;;;;;12.30;3.47;;;13.20;94.00;;;;;;5081397;28;20031;-83
2023/05/29 00:42:36;;;;;;;9.02;2.92;;;13.20;94.00;;;;;;5081409;28;20024;-83
2023/05/29 00:45:02;;;;;;;11.95;3.40;;;13.20;94.00;;;;;;5081144;28;20081;-83
2023/05/29 00:47:29;;;;;;;13.82;3.60;;;13.20;93.90;;;;;;5097727;28;20059;-83
2023/05/29 00:49:57;;;;;;;15.32;3.25;;;13.20;93.80;;;;;;5097771;28;20035;-83
2023/05/29 00:52:25;;;;;;;10.50;3.03;;;13.20;93.80;;;;;;5116037;28;20050;-83
2023/05/29 00:54:51;;;;;;;12.63;3.85;;;13.20;93.80;;;;;;5097730;28;20035;-83
2023/05/29 00:57:17;;;;;;;13.60;3.10;;;13.20;93.60;;;;;;5080612;28;20390;-83
2023/05/29 00:59:45;;;;;;;9.23;2.72;;;13.10;93.60;;;;;;5097749;28;20027;-83
2023/05/29 01:02:11;;;;;;;12.75;2.75;;;13.10;93.60;;;;;;5098417;28;20178;-83
2023/05/29 01:04:37;;;;;;;11.40;3.20;;;13.20;93.60;;;;;;5116255;28;20489;-83
2023/05/29 01:07:03;;;;;;;8.25;2.97;;;13.20;93.50;;;;;;5106974;28;20032;-83
2023/05/29 01:09:30;;;;;;;10.40;2.92;;;13.10;93.50;;;;;;5118478;28;20020;-83
2023/05/29 01:12:14;;;;;;;10.20;3.33;;;13.10;93.50;;;;;;5120539;28;20031;-83
2023/05/29 01:15:07;;;;;;;13.68;3.15;;;13.10;93.50;;;;;;5103000;28;20035;-83
2023/05/29 01:18:13;;;;;;;10.93;3.10;;;13.00;93.60;;;;;;5118978;28;20055;-80
2023/05/29 01:20:48;;;;;;;12.80;3.25;;;13.00;93.60;;;;;;5033848;28;20461;-83
2023/05/29 01:23:51;;;;;;;10.85;2.67;;;13.00;93.50;;;;;;5071366;28;20028;-84
2023/05/29 01:26:45;;;;;;;12.40;3.50;;;13.00;93.60;;;;;;5115663;28;20031;-83
2023/05/29 01:29:14;;;;;;;13.60;3.53;;;13.00;93.60;;;;;;5078609;28;20490;-83
2023/05/29 01:31:41;;;;;;;13.90;3.22;;;12.90;93.70;;;;;;5082305;28;20016;-83
2023/05/29 01:34:07;;;;;;;10.88;2.55;;;12.80;93.70;;;;;;5094663;28;20140;-83
2023/05/29 01:36:32;;;;;;;13.18;3.20;;;12.80;93.80;;;;;;5093186;28;20437;-83
2023/05/29 01:38:59;;;;;;;10.70;3.15;;;12.80;93.90;;;;;;5092726;28;20025;-83
2023/05/29 01:41:26;;;;;;;13.90;3.05;;;12.70;93.90;;;;;;5089824;28;20371;-83
2023/05/29 01:43:53;;;;;;;10.90;3.38;;;12.70;94.00;;;;;;5096724;28;20459;-83
2023/05/29 01:46:20;;;;;;;12.00;3.05;;;12.60;94.10;;;;;;5114724;28;20034;-83
2023/05/29 01:48:46;;;;;;;11.73;3.13;;;12.60;94.20;;;;;;5096152;28;20043;-83
2023/05/29 01:51:12;;;;;;;12.55;3.30;;;12.60;94.20;;;;;;5079750;28;20437;-83
2023/05/29 01:53:42;;;;;;;10.70;2.88;;;12.60;94.20;;;;;;5096892;28;20028;-83
2023/05/29 01:56:09;;;;;;;10.80;2.97;;;12.60;94.20;;;;;;5091900;28;20067;-83
2023/05/29 01:58:35;;;;;;;13.88;3.95;;;12.70;94.20;;;;;;5079519;28;20032;-83
2023/05/29 02:01:03;;;;;;;14.82;3.85;;;12.60;94.20;;;;;;5075815;28;20032;-83
2023/05/29 02:03:29;;;;;;;12.15;3.15;;;12.60;94.20;;;;;;5078010;28;20475;-83
2023/05/29 02:05:59;;;;;;;14.02;3.72;;;12.60;94.50;;;;;;5093861;28;20537;-83
2023/05/29 02:08:25;;;;;;;11.02;3.22;;;12.50;94.30;;;;;;5075524;28;20020;-83
2023/05/29 02:10:51;;;;;;;10.07;2.78;;;12.50;94.40;;;;;;5069193;28;20128;-83
2023/05/29 02:13:17;;;;;;;17.60;3.67;;;12.40;94.40;;;;;;5096558;28;20016;-83
2023/05/29 02:15:43;;;;;;;20.80;3.83;;;12.40;94.50;;;;;;5114167;28;20055;-83
2023/05/29 02:18:12;;;;;;;16.75;3.92;;;12.40;94.60;;;;;;5078597;28;20039;-83
2023/05/29 02:20:37;;;;;;;17.67;3.83;;;12.30;94.70;;;;;;5114184;28;20055;-83
2023/05/29 02:23:03;;;;;;;11.43;3.25;;;12.20;94.80;;;;;;5112492;28;20063;-82
2023/05/29 02:25:29;;;;;;;14.02;3.83;;;12.20;94.80;;;;;;5088214;28;20027;-83
2023/05/29 02:27:55;;;;;;;14.07;3.25;;;12.20;94.90;;;;;;5093528;28;20100;-83
2023/05/29 02:30:20;;;;;;;11.80;3.22;;;12.10;94.90;;;;;;5094470;28;20486;-83
2023/05/29 02:32:46;;;;;;;14.88;3.67;;;12.10;95.00;;;;;;5114100;28;20379;-83
2023/05/29 02:35:15;;;;;;;16.08;3.65;;;12.10;95.00;;;;;;5096059;28;20501;-83
2023/05/29 02:37:41;;;;;;;19.08;3.58;;;12.10;95.10;;;;;;5114081;28;20030;-83
2023/05/29 02:40:08;;;;;;;11.57;3.30;;;12.00;95.20;;;;;;5072524;28;20483;-82
2023/05/29 02:42:34;;;;;;;16.85;4.65;;;12.00;95.20;;;;;;5078435;28;20789;-83
2023/05/29 02:45:00;;;;;;;9.50;3.40;;;12.00;95.30;;;;;;5087190;28;20024;-83
2023/05/29 02:47:26;;;;;;;13.02;3.42;;;12.00;95.30;;;;;;5118940;28;20051;-83
2023/05/29 02:49:51;;;;;;;10.55;2.95;;;12.00;95.30;;;;;;5134023;28;20060;-83
2023/05/29 02:52:17;;;;;;;13.57;3.20;;;12.00;95.30;;;;;;5121238;28;20019;-82
2023/05/29 02:54:42;;;;;;;11.40;3.00;;;12.00;95.20;;;;;;5108051;28;20042;-83
2023/05/29 02:57:09;;;;;;;16.08;3.53;;;12.00;95.20;;;;;;5079894;28;20027;-83
2023/05/29 02:59:35;;;;;;;13.75;3.33;;;12.00;95.30;;;;;;5096468;28;20023;-83
2023/05/29 03:02:00;;;;;;;15.82;3.42;;;11.90;95.40;;;;;;5075391;28;20024;-83
2023/05/29 03:04:27;;;;;;;16.08;3.50;;;11.90;95.40;;;;;;5093781;28;20055;-83
2023/05/29 03:06:54;;;;;;;17.25;3.70;;;11.80;95.40;;;;;;5092415;28;20032;-83
2023/05/29 03:09:19;;;;;;;15.77;3.78;;;11.80;95.50;;;;;;5092562;28;20107;-83
2023/05/29 03:11:47;;;;;;;17.92;4.30;;;11.80;95.60;;;;;;5075185;28;20067;-83
2023/05/29 03:14:13;;;;;;;11.60;3.28;;;11.80;95.60;;;;;;5058694;28;20460;-83
2023/05/29 03:16:40;;;;;;;16.60;3.88;;;11.70;95.60;;;;;;5082216;28;20039;-83
2023/05/29 03:19:07;;;;;;;14.07;3.75;;;11.70;95.60;;;;;;5096683;28;20494;-83
2023/05/29 03:21:33;;;;;;;14.75;3.60;;;11.70;95.70;;;;;;5099547;28;20090;-83
2023/05/29 03:24:00;;;;;;;16.20;3.65;;;11.60;95.70;;;;;;5082139;28;20034;-83
2023/05/29 03:26:26;;;;;;;12.13;2.95;;;11.60;95.80;;;;;;5099726;28;20020;-83
2023/05/29 03:28:52;;;;;;;10.90;3.00;;;11.60;95.70;;;;;;5099033;28;20038;-82
2023/05/29 03:31:17;;;;;;;13.63;3.60;;;11.70;95.70;;;;;;5098910;28;20262;-83
2023/05/29 03:33:43;;;;;;;17.65;4.28;;;11.70;96.00;;;;;;5098951;28;20031;-83
2023/05/29 03:36:09;;;;;;;14.20;3.50;;;11.60;95.70;;;;;;5082139;28;20058;-83
2023/05/29 03:38:34;;;;;;;12.05;2.80;;;11.70;95.70;;;;;;5082495;28;20047;-83
2023/05/29 03:41:00;;;;;;;14.35;3.70;;;11.70;95.70;;;;;;5090183;28;20111;-82
2023/05/29 03:43:26;;;;;;;15.80;3.38;;;11.70;95.70;;;;;;5094002;28;20030;-83
2023/05/29 03:45:51;;;;;;;12.75;3.50;;;11.70;95.70;;;;;;5098912;28;20035;-83
2023/05/29 03:48:17;;;;;;;10.20;2.70;;;11.70;95.70;;;;;;5098267;28;20548;-83
2023/05/29 03:50:44;;;;;;;12.73;3.25;;;11.80;95.70;;;;;;5117441;28;20020;-83
2023/05/29 03:53:10;;;;;;;14.45;3.80;;;11.70;95.70;;;;;;5098716;28;20024;-83
2023/05/29 03:55:36;;;;;;;12.13;3.13;;;11.70;95.70;;;;;;5082143;28;20360;-83
2023/05/29 03:58:01;;;;;;;8.10;2.92;;;11.70;95.70;;;;;;5098690;28;20494;-81
2023/05/29 04:00:27;;;;;;;13.52;3.20;;;11.70;95.70;;;;;;5098624;28;20032;-83
2023/05/29 04:02:52;;;;;;;14.07;4.25;;;11.70;95.70;;;;;;5098708;28;20076;-83
2023/05/29 04:05:18;;;;;;;15.70;3.72;;;11.70;95.70;;;;;;5081471;28;20056;-83
2023/05/29 04:07:44;;;;;;;12.85;3.88;;;11.70;95.70;;;;;;5098423;28;20061;-83
2023/05/29 04:10:10;;;;;;;15.35;3.42;;;11.70;95.60;;;;;;5116883;28;20023;-83
2023/05/29 04:12:35;;;;;;;15.20;3.50;;;11.60;95.70;;;;;;5094302;28;20028;-83
2023/05/29 04:15:01;;;;;;;12.27;3.20;;;11.60;95.80;;;;;;5090144;28;20035;-83
2023/05/29 04:17:27;;;;;;;12.88;3.00;;;11.60;95.80;;;;;;5085180;28;20038;-83
2023/05/29 04:19:52;;;;;;;12.52;3.10;;;11.60;95.80;;;;;;5113309;28;20003;-83
2023/05/29 04:22:19;;;;;;;11.10;3.35;;;11.70;95.80;;;;;;5141387;28;20067;-83
2023/05/29 04:24:45;;;;;;;15.00;3.55;;;11.70;95.70;;;;;;5107350;28;20029;-82
2023/05/29 04:27:13;;;;;;;13.95;3.63;;;11.70;95.70;;;;;;5123843;28;20014;-82
2023/05/29 04:29:42;;;;;;;14.32;3.50;;;11.70;95.80;;;;;;5110478;28;20050;-83
2023/05/29 04:32:11;;;;;;;13.25;2.92;;;11.70;96.10;;;;;;5084603;28;20028;-83
2023/05/29 04:34:39;;;;;;;11.15;3.03;;;11.70;95.70;;;;;;5095321;28;20058;-83
2023/05/29 04:37:06;;;;;;;11.90;3.60;;;11.80;95.60;;;;;;5061211;28;20127;-82
2023/05/29 04:39:32;;;;;;;16.60;3.28;;;11.80;95.60;;;;;;5101565;28;20035;-82
2023/05/29 04:42:01;;;;;;;15.00;3.70;;;11.80;95.60;;;;;;5116461;28;20107;-83
2023/05/29 04:44:26;;;;;;;11.00;2.88;;;11.80;95.60;;;;;;5088755;28;20038;-83
2023/05/29 04:46:53;;;;;;;13.30;3.55;;;11.80;95.60;;;;;;5095371;28;20139;-83
2023/05/29 04:49:20;;;;;;;17.67;4.28;;;11.80;95.60;;;;;;5077369;28;20033;-83
2023/05/29 04:51:46;;;;;;;13.23;4.03;;;11.80;95.60;;;;;;5093510;28;20079;-83
2023/05/29 04:54:12;;;;;;;18.40;3.67;;;11.80;95.60;;;;;;5097433;28;20035;-83
2023/05/29 04:56:40;;;;;;;12.80;3.60;;;11.80;95.50;;;;;;5080948;28;20038;-83
2023/05/29 04:59:06;;;;;;;16.50;3.65;;;11.80;95.50;;;;;;5096455;28;20035;-83
2023/05/29 05:01:36;;;;;;;19.13;3.85;;;11.90;95.40;;;;;;5093226;28;20038;-83
2023/05/29 05:04:01;;;;;;;15.52;3.00;;;11.80;95.40;;;;;;5110625;28;20020;-83
2023/05/29 05:06:27;;;;;;;11.05;3.65;;;11.80;95.40;;;;;;5076865;28;20055;-83
2023/05/29 05:08:53;;;;;;;14.80;3.67;;;11.80;95.40;;;;;;5077541;28;20031;-83
2023/05/29 05:11:22;;;;;;;14.93;3.75;;;11.70;95.50;;;;;;5082290;28;20034;-83
2023/05/29 05:13:48;;;;;;;15.50;3.80;;;11.70;95.60;;;;;;5102504;28;20467;-83
2023/05/29 05:16:13;;;;;;;14.38;3.88;;;11.70;95.60;;;;;;5071964;28;20123;-83
2023/05/29 05:18:39;;;;;;;13.95;3.83;;;11.70;95.60;;;;;;5115347;28;20039;-83
2023/05/29 05:21:06;;;;;;;11.10;3.35;;;11.70;95.60;;;;;;5089057;28;20023;-83
2023/05/29 05:23:32;;;;;;;15.18;3.42;;;11.70;95.60;;;;;;5097073;28;20027;-83
2023/05/29 05:25:57;;;;;;;18.20;3.58;;;11.80;95.50;;;;;;5115551;28;20024;-84
2023/05/29 05:28:23;;;;;;;15.70;3.67;;;11.80;95.30;;;;;;5097000;28;20031;-83
2023/05/29 05:30:49;;;;;;;11.55;3.33;;;11.80;95.40;;;;;;5102714;28;20506;-83
2023/05/29 05:33:15;;;;;;;10.45;2.75;;;11.80;95.40;;;;;;5100119;28;20035;-83
2023/05/29 05:35:40;;;;;;;12.43;2.95;;;11.80;95.40;;;;;;5081878;28;20024;-83
2023/05/29 05:38:06;;;;;;;11.13;3.05;;;11.90;95.30;;;;;;5065098;28;20028;-83
2023/05/29 05:40:32;;;;;;;12.98;2.85;;;11.90;95.20;;;;;;5079890;28;20035;-83
2023/05/29 05:42:58;;;;;;;15.60;4.03;;;12.00;95.20;;;;;;5097239;28;20035;-84
2023/05/29 05:45:23;;;;;;;12.57;3.22;;;12.00;95.10;;;;;;5096624;28;20028;-84
2023/05/29 05:47:49;;;;;;;12.20;3.38;;;12.00;95.20;;;;;;5079865;28;20475;-84
2023/05/29 05:50:15;;;;;;;12.45;2.97;;;12.00;95.10;;;;;;5098245;28;20035;-84
2023/05/29 05:52:41;;;;;;;13.50;3.28;;;12.10;95.00;;;;;;5100473;28;20020;-83
2023/05/29 05:55:07;;;;;;;13.25;3.30;;;12.10;94.80;;;;;;5104025;28;20015;-83
2023/05/29 05:57:33;;;;;;;14.30;3.17;;;12.10;94.80;;;;;;5104509;28;20022;-83
2023/05/29 06:00:00;;;;;;;11.45;2.92;;;12.10;94.70;;;;;;5105184;28;20036;-83
2023/05/29 06:02:26;;;;;;;12.93;2.90;;;12.20;94.70;;;;;;5122041;28;20087;-83
2023/05/29 06:04:51;;;;;;;12.50;2.90;;;12.20;94.70;;;;;;5100450;28;20515;-84
2023/05/29 06:07:17;;;;;;;13.85;3.65;;;12.30;94.60;;;;;;5084173;28;20032;-82
2023/05/29 06:09:43;;;;;;;11.55;2.95;;;12.30;94.50;;;;;;5093223;28;20052;-83
2023/05/29 06:12:09;;;;;;;9.55;3.03;;;12.30;94.50;;;;;;5109384;28;20049;-83
2023/05/29 06:14:35;;;;;;;13.82;3.05;;;12.40;94.30;;;;;;5096168;28;20451;-84
2023/05/29 06:17:01;;;;;;;12.85;3.45;;;12.40;94.30;;;;;;5096411;28;20120;-83
2023/05/29 06:19:27;;;;;;;11.52;3.33;;;12.50;94.20;;;;;;5078942;28;20164;-83
2023/05/29 06:21:52;;;;;;;12.25;3.22;;;12.50;93.90;;;;;;5079110;28;20027;-84
2023/05/29 06:24:18;;;;;;;9.73;3.05;;;12.60;93.80;;;;;;5095872;28;20027;-83
2023/05/29 06:26:44;;;;;;;10.02;2.83;;;12.70;93.80;;;;;;5096247;28;20028;-84
2023/05/29 06:29:10;;;;;;;9.63;2.88;;;12.70;93.70;;;;;;5079135;28;20032;-84
2023/05/29 06:31:35;;;;;;;7.60;2.50;;;12.80;93.70;;;;;;5095492;28;20428;-84
2023/05/29 06:34:01;;;;;;;12.52;3.30;;;12.90;93.70;;;;;;5095713;28;20114;-84
2023/05/29 06:36:27;;;;;;;11.95;2.65;;;13.10;93.50;;;;;;5077934;28;20039;-83
2023/05/29 06:38:52;;;;;;;14.68;3.10;;;13.10;93.20;;;;;;5074764;28;20111;-84
2023/05/29 06:41:21;;;;;;;10.85;2.42;;;13.10;92.80;;;;;;5094199;28;20459;-84
2023/05/29 06:43:47;;;;;;;10.98;2.92;;;13.10;92.90;;;;;;5079052;28;20540;-83
2023/05/29 06:46:12;;;;;;;10.98;2.78;;;13.10;92.80;;;;;;5095793;28;20019;-84
2023/05/29 06:48:38;;;;;;;11.77;2.90;;;13.20;92.80;;;;;;5075281;28;20048;-83
2023/05/29 06:51:11;;;;;;;12.10;3.10;;;13.30;92.80;;;;;;5092354;28;20047;-83
2023/05/29 06:53:41;;;;;;;7.93;2.45;;;13.30;92.50;;;;;;5091736;28;20016;-84
2023/05/29 06:56:07;;;;;;;9.70;2.72;;;13.40;92.40;;;;;;5075554;28;20025;-84
2023/05/29 06:58:33;;;;;;;7.93;3.22;;;13.40;92.20;;;;;;5091891;28;20060;-84
2023/05/29 07:00:59;;;;;;;13.40;2.83;;;13.50;92.10;;;;;;5092362;28;20059;-84
2023/05/29 07:03:28;;;;;;;13.07;2.88;;;13.50;91.80;;;;;;5087878;28;20162;-83
2023/05/29 07:05:54;;;;;;;10.02;2.97;;;13.50;91.80;;;;;;5093545;28;20021;-84
2023/05/29 07:08:20;;;;;;;9.90;2.72;;;13.60;91.90;;;;;;5072956;28;20342;-84
2023/05/29 07:10:46;;;;;;;7.47;2.53;;;13.60;91.70;;;;;;5071704;28;20043;-84
2023/05/29 07:13:15;;;;;;;10.05;2.65;;;13.70;91.80;;;;;;5072469;28;20140;-84
2023/05/29 07:15:41;;;;;;;10.02;3.05;;;13.80;91.70;;;;;;5078626;28;20152;-84
2023/05/29 07:18:06;;;;;;;12.38;2.83;;;13.90;91.50;;;;;;5091802;28;20546;-84
2023/05/29 07:20:32;;;;;;;13.15;2.58;;;13.90;91.10;;;;;;5075298;28;20020;-84
2023/05/29 07:22:58;;;;;;;14.77;3.25;;;13.90;91.20;;;;;;5075527;28;20020;-84
2023/05/29 07:25:23;;;;;;;10.70;2.70;;;14.00;91.30;;;;;;5092770;28;20081;-84
2023/05/29 07:27:49;;;;;;;11.20;2.45;;;14.10;91.10;;;;;;5075358;28;20032;-84
2023/05/29 07:30:15;;;;;;;12.25;2.97;;;14.10;90.70;;;;;;5101276;28;20012;-84
2023/05/29 07:32:41;;;;;;;8.30;2.55;;;14.20;90.70;;;;;;5099982;28;20046;-84
2023/05/29 07:35:09;;;;;;;9.38;2.50;;;14.10;90.60;;;;;;5096562;28;20104;-83
2023/05/29 07:37:35;;;;;;;8.00;2.50;;;14.20;90.80;;;;;;5087239;28;20040;-85
2023/05/29 07:40:02;;;;;;;8.43;2.72;;;14.30;90.70;;;;;;5082171;28;20040;-84
2023/05/29 07:42:27;;;;;;;11.43;2.95;;;14.30;90.20;;;;;;5088672;28;20027;-83
2023/05/29 07:44:53;;;;;;;8.77;2.70;;;14.40;90.20;;;;;;5088925;28;20520;-82
2023/05/29 07:47:18;;;;;;;12.27;2.55;;;14.30;90.60;;;;;;5099903;28;20403;-85
2023/05/29 07:49:44;;;;;;;9.23;2.58;;;14.40;90.20;;;;;;5095104;28;20379;-84
2023/05/29 07:52:10;;;;;;;6.28;2.63;;;14.50;90.10;;;;;;5095274;28;20020;-85
2023/05/29 07:54:36;;;;;;;7.53;2.60;;;14.60;90.30;;;;;;5078235;28;20043;-86
2023/05/29 07:57:09;;;;;;;10.57;2.83;;;14.70;90.30;;;;;;5077620;28;20036;-86
2023/05/29 07:59:35;;;;;;;9.88;2.80;;;14.70;90.20;;;;;;5095138;28;20016;-79
2023/05/29 08:02:03;;;;;;;12.38;3.13;;;14.80;90.20;;;;;;5095587;28;20020;-79
2023/05/29 08:04:29;;;;;;;10.93;2.60;;;14.80;89.60;;;;;;5090043;28;20101;-80
2023/05/29 08:06:54;;;;;;;10.98;2.58;;;14.80;89.40;;;;;;5077206;28;20484;-79
2023/05/29 08:09:20;;;;;;;8.13;2.92;;;14.80;89.50;;;;;;5096440;28;20464;-79
2023/05/29 08:11:47;;;;;;;8.95;2.75;;;14.90;89.80;;;;;;5095783;28;20080;-79
2023/05/29 08:14:13;;;;;;;9.43;2.60;;;15.00;89.90;;;;;;5078666;28;20016;-79
2023/05/29 08:16:39;;;;;;;7.78;2.35;;;15.10;89.80;;;;;;5094899;28;20502;-79
2023/05/29 08:19:05;;;;;;;8.90;2.22;;;15.20;89.90;;;;;;5095031;28;20019;-82
2023/05/29 08:21:31;;;;;;;11.27;3.20;;;15.30;90.00;;;;;;5098239;28;20027;-79
2023/05/29 08:23:58;;;;;;;9.82;3.22;;;15.40;89.40;;;;;;5116967;28;20026;-86
2023/05/29 08:26:23;;;;;;;10.50;3.10;;;15.40;88.90;;;;;;5081527;28;20360;-86
2023/05/29 08:28:49;;;;;;;9.95;3.00;;;15.40;88.70;;;;;;5080998;28;20023;-86
2023/05/29 08:31:15;;;;;;;6.88;2.60;;;15.50;88.60;;;;;;5081206;28;20097;-85
2023/05/29 08:33:41;;;;;;;10.88;2.90;;;15.40;88.60;;;;;;5095792;28;20064;-85
2023/05/29 08:36:08;;;;;;;10.40;2.55;;;15.50;88.10;;;;;;5072122;28;20076;-85
2023/05/29 08:38:35;;;;;;;11.40;2.88;;;15.50;88.10;;;;;;5116161;28;20023;-84
2023/05/29 08:41:01;;;;;;;9.60;3.28;;;15.60;88.20;;;;;;5084829;28;20467;-84
2023/05/29 08:43:31;;;;;;;10.77;3.13;;;15.60;88.20;;;;;;5094540;28;20119;-85
2023/05/29 08:46:02;;;;;;;8.18;2.78;;;15.70;88.00;;;;;;5077356;28;20084;-85
2023/05/29 08:48:30;;;;;;;10.30;2.72;;;15.80;88.10;;;;;;5095862;28;20055;-85
2023/05/29 08:50:57;;;;;;;7.13;2.40;;;15.80;87.00;;;;;;5077585;28;20024;-85
2023/05/29 08:53:23;;;;;;;8.60;2.40;;;15.90;87.30;;;;;;5077948;28;20069;-85
2023/05/29 08:55:51;;;;;;;9.48;2.65;;;15.90;87.20;;;;;;5077870;28;20035;-85
2023/05/29 08:58:17;;;;;;;9.25;2.53;;;16.00;87.30;;;;;;5095458;28;20024;-85
2023/05/29 09:00:47;;;;;;;8.88;2.65;;;16.10;87.20;;;;;;5077518;28;20020;-84
2023/05/29 09:03:13;;;;;;;6.63;2.03;;;16.20;87.10;;;;;;5095921;28;20016;-85
2023/05/29 09:05:42;;;;;;;8.45;2.60;;;16.30;86.70;;;;;;5094391;28;20031;-86
2023/05/29 09:08:11;;;;;;;9.48;2.70;;;16.30;85.40;;;;;;5081448;28;20024;-85
2023/05/29 09:10:41;;;;;;;5.63;2.20;;;16.30;85.30;;;;;;5081562;28;20039;-85
2023/05/29 09:13:09;;;;;;;9.75;2.90;;;16.40;85.60;;;;;;5117156;28;20016;-86
2023/05/29 09:15:35;;;;;;;7.28;2.35;;;16.40;85.60;;;;;;5139798;28;20026;-85
2023/05/29 09:18:00;;;;;;;6.97;2.40;;;16.50;85.00;;;;;;5105633;28;20023;-85
2023/05/29 09:20:27;;;;;;;11.45;2.75;;;16.50;84.40;;;;;;5096089;28;20024;-84
2023/05/29 09:23:04;;;;;;;8.82;2.60;;;16.50;84.50;;;;;;5098559;28;20023;-85
2023/05/29 09:25:32;;;;;;;10.40;3.17;;;16.50;84.50;;;;;;5111798;28;20020;-85
2023/05/29 09:28:07;;;;;;;9.55;2.83;;;16.50;84.60;;;;;;5089650;28;20901;-85
2023/05/29 09:30:39;;;;;;;9.05;2.60;;;16.60;84.50;;;;;;5097345;28;20027;-85
2023/05/29 09:33:11;;;;;;;8.63;2.60;;;16.60;84.40;;;;;;5097184;28;20027;-86
2023/05/29 09:35:39;;;;;;;5.72;2.35;;;16.70;84.30;;;;;;5097273;28;20379;-85
2023/05/29 09:38:06;;;;;;;10.05;2.70;;;16.80;84.40;;;;;;5096066;28;20039;-85
2023/05/29 09:40:32;;;;;;;8.10;2.85;;;16.80;84.30;;;;;;5110192;28;20038;-86
2023/05/29 09:43:17;;;;;;;8.13;2.83;;;16.90;84.30;;;;;;5096499;28;20028;-86
2023/05/29 09:45:45;;;;;;;10.93;2.88;;;17.00;83.80;;;;;;5096722;28;20159;-86
2023/05/29 09:48:21;;;;;;;5.68;2.67;;;17.00;83.80;;;;;;5115209;28;20122;-86
2023/05/29 09:50:49;;;;;;;8.50;2.30;;;17.10;84.10;;;;;;5111300;28;20455;-86
2023/05/29 09:53:27;;;;;;;8.70;2.92;;;17.20;83.20;;;;;;5071923;28;20023;-86
2023/05/29 09:55:54;;;;;;;9.05;2.45;;;17.20;83.30;;;;;;5084913;28;20371;-87
2023/05/29 09:58:20;;;;;;;8.27;2.92;;;17.20;83.30;;;;;;5114890;28;20028;-87
2023/05/29 10:00:51;;;;;;;8.68;2.50;;;17.20;83.10;;;;;;5075715;28;20031;-86
2023/05/29 10:03:17;;;;;;;8.75;2.95;;;17.30;83.00;;;;;;5076291;28;20119;-85
2023/05/29 10:05:47;;;;;;;6.28;2.13;;;17.30;82.90;;;;;;5076417;28;20060;-85
2023/05/29 10:08:14;;;;;;;7.22;2.72;;;17.40;83.00;;;;;;5093599;28;20032;-86
2023/05/29 10:10:46;;;;;;;8.55;3.08;;;17.40;82.40;;;;;;5096358;28;20023;-85
2023/05/29 10:13:13;;;;;;;7.43;2.88;;;17.40;82.70;;;;;;5096988;28;20375;-86
2023/05/29 10:15:41;;;;;;;8.55;3.40;;;17.40;82.10;;;;;;5096425;28;20032;-85
2023/05/29 10:18:28;;;;;;;6.97;2.30;;;17.40;81.90;;;;;;5113680;28;20383;-86
2023/05/29 10:20:58;;;;;;;11.60;3.05;;;17.30;82.10;;;;;;5114207;28;20023;-86
2023/05/29 10:23:26;;;;;;;6.90;2.60;;;17.40;82.30;;;;;;5095999;28;20019;-86
2023/05/29 10:25:54;;;;;;;6.63;2.45;;;17.40;82.50;;;;;;5096011;28;20030;-85
2023/05/29 10:28:23;;;;;;;6.78;2.35;;;17.40;82.80;;;;;;5092005;28;20075;-85
2023/05/29 10:31:08;;;;;;;6.97;2.28;;;17.50;82.60;;;;;;5075607;28;20028;-85
2023/05/29 10:33:48;;;;;;;6.40;2.53;;;17.60;82.70;;;;;;5093953;28;20024;-86
2023/05/29 10:36:23;;;;;;;8.13;2.90;;;17.60;81.90;;;;;;5093932;28;20502;-86
2023/05/29 10:38:50;;;;;;;9.57;2.67;;;17.60;82.00;;;;;;5103265;28;20015;-86
2023/05/29 10:41:28;;;;;;;9.38;2.35;;;17.60;81.80;;;;;;5095855;28;20031;-86
2023/05/29 10:44:23;;;;;;;7.35;2.22;;;17.70;81.10;;;;;;5091444;28;20024;-86
2023/05/29 10:46:49;;;;;;;10.70;3.03;;;17.70;80.70;;;;;;5092087;28;20032;-86
2023/05/29 10:49:20;;;;;;;6.50;2.58;;;17.80;81.10;;;;;;5099495;28;20122;-86
2023/05/29 10:51:49;;;;;;;8.77;2.30;;;17.80;81.00;;;;;;5079470;28;20027;-86
2023/05/29 10:54:16;;;;;;;10.93;3.28;;;18.00;81.60;;;;;;5080301;28;20028;-87
2023/05/29 10:56:45;;;;;;;5.32;2.50;;;18.00;80.50;;;;;;5082035;28;20070;-87
2023/05/29 10:59:11;;;;;;;7.25;2.63;;;18.10;80.50;;;;;;5116786;28;20024;-86
2023/05/29 11:01:38;;;;;;;6.97;2.38;;;18.20;80.30;;;;;;5133565;28;20098;-87
2023/05/29 11:04:26;;;;;;;7.30;2.30;;;18.30;80.20;;;;;;5099519;28;20024;-86
2023/05/29 11:06:52;;;;;;;7.57;2.47;;;18.30;79.80;;;;;;5113963;28;20091;-87
2023/05/29 11:09:31;;;;;;;5.97;2.20;;;18.40;76.90;;;;;;5099852;28;20020;-87
2023/05/29 11:12:09;;;;;;;9.48;3.28;;;18.30;77.00;;;;;;5090031;28;20034;-87
2023/05/29 11:14:45;;;;;;;9.85;2.70;;;18.40;77.50;;;;;;5084273;28;20406;-88
2023/05/29 11:17:38;;;;;;;7.70;2.75;;;18.50;76.90;;;;;;5080596;28;20035;-88
2023/05/29 11:20:08;;;;;;;8.02;2.58;;;18.50;77.40;;;;;;5097721;28;20104;-86
2023/05/29 11:22:53;;;;;;;;;;;18.60;77.40;;;;;;5084351;28;20027;-88
2023/05/29 11:25:20;;;;;;;8.57;3.10;;;18.60;76.50;;;;;;5083041;28;19946;-87
2023/05/29 11:27:46;;;;;;;8.48;3.00;;;18.50;76.00;;;;;;5089743;28;20015;-87
2023/05/29 11:30:12;;;;;;;7.55;2.67;;;18.50;76.30;;;;;;5069525;28;20504;-87
2023/05/29 11:32:43;;;;;;;12.65;3.10;;;18.60;76.00;;;;;;5091488;28;20476;-86
2023/05/29 11:35:10;;;;;;;7.60;2.28;;;18.50;74.80;;;;;;5095252;28;20023;-87
2023/05/29 11:37:37;;;;;;;5.65;2.25;;;18.40;75.90;;;;;;5074770;28;20024;-86
2023/05/29 11:40:10;;;;;;;7.70;2.97;;;18.40;75.70;;;;;;5076018;28;20035;-87
2023/05/29 11:42:45;;;;;;;7.57;2.95;;;18.50;75.30;;;;;;5096143;28;20031;-87
2023/05/29 11:45:14;;;;;;;10.18;3.45;;;18.60;75.10;;;;;;5078816;28;20368;-87
2023/05/29 11:47:59;;;;;;;7.28;2.70;;;18.50;75.00;;;;;;5116350;28;20048;-86
2023/05/29 11:50:30;;;;;;;7.70;2.63;;;18.70;75.60;;;;;;5117453;28;20378;-87
2023/05/29 11:52:58;;;;;;;8.57;2.83;;;18.70;75.00;;;;;;5098767;28;20023;-86
2023/05/29 11:55:25;;;;;;;8.25;3.00;;;18.80;75.60;;;;;;5082290;28;20035;-86
2023/05/29 11:57:56;;;;;;;7.88;2.63;;;18.90;75.00;;;;;;5081501;28;20024;-86
2023/05/29 12:00:22;;;;;;;7.10;2.50;;;18.90;74.00;;;;;;5099305;28;20035;-87
2023/05/29 12:02:49;;;;;;;9.93;2.83;;;18.90;74.60;;;;;;5090272;28;20023;-86
2023/05/29 12:05:18;;;;;;;7.72;2.55;;;18.90;73.60;;;;;;5098381;28;20038;-87
2023/05/29 12:07:57;;;;;;;11.43;2.88;;;19.00;73.60;;;;;;5078382;28;20056;-87
2023/05/29 12:10:23;;;;;;;7.22;2.63;;;19.10;74.00;;;;;;5078597;28;20456;-87
2023/05/29 12:12:58;;;;;;;7.03;2.50;;;19.10;73.80;;;;;;5090207;28;20467;-87
2023/05/29 12:15:23;;;;;;;8.25;2.88;;;19.20;74.00;;;;;;5116995;28;20352;-87
2023/05/29 12:17:50;;;;;;;7.18;2.95;;;19.20;73.60;;;;;;5081492;28;20031;-86
2023/05/29 12:20:17;;;;;;;7.88;2.75;;;19.20;73.20;;;;;;5098300;28;20039;-86
2023/05/29 12:22:44;;;;;;;9.60;3.35;;;19.20;73.30;;;;;;5081797;28;20050;-87
2023/05/29 12:25:12;;;;;;;6.28;2.80;;;19.20;72.80;;;;;;5098329;28;20065;-87
2023/05/29 12:27:42;;;;;;;8.10;2.90;;;19.20;73.10;;;;;;5081117;28;20024;-85
2023/05/29 12:30:22;;;;;;;11.18;3.55;;;19.30;73.20;;;;;;5093808;28;20118;-86
2023/05/29 12:32:50;;;;;;;8.38;3.22;;;19.30;72.80;;;;;;5077496;28;20525;-86
2023/05/29 12:35:17;;;;;;;9.50;3.40;;;19.30;72.80;;;;;;5095061;28;20043;-86
2023/05/29 12:37:49;;;;;;;7.78;3.10;;;19.40;72.40;;;;;;5078084;28;20063;-86
2023/05/29 12:40:20;;;;;;;6.78;2.97;;;19.40;72.40;;;;;;5098001;28;20084;-86
2023/05/29 12:43:11;;;;;;;11.13;3.53;;;19.40;71.40;;;;;;5098671;28;20080;-86
2023/05/29 12:45:37;;;;;;;10.63;3.05;;;19.30;71.10;;;;;;5118311;28;20028;-86